createdAt,value
2022-08-28T00:00:21.207Z,65.94
2022-08-28T00:03:23.043Z,64.54
2022-08-28T00:06:25.113Z,64.28
2022-08-28T00:09:26.766Z,65.62
2022-08-28T00:12:28.641Z,65.58
2022-08-28T00:15:33.232Z,66.74
2022-08-28T00:18:35.048Z,65.93
2022-08-28T00:21:37.545Z,65.83
2022-08-28T00:24:39.342Z,64.65
2022-08-28T00:27:52.985Z,65.03
2022-08-28T00:30:58.463Z,65.29
2022-08-28T00:34:03.096Z,63.51
2022-08-28T00:37:05.041Z,63.54
2022-08-28T00:40:09.083Z,65.15
2022-08-28T00:43:22.802Z,66.95
2022-08-28T00:46:24.469Z,65.70
2022-08-28T00:49:37.609Z,66.98
2022-08-28T00:52:40.395Z,67.71
2022-08-28T00:55:43.217Z,68.11
2022-08-28T00:58:47.968Z,68.91
2022-08-28T01:01:54.301Z,68.68
2022-08-28T01:04:56.291Z,69.65
2022-08-28T01:07:59.386Z,70.85
2022-08-28T01:11:03.686Z,71.65
2022-08-28T01:14:06.566Z,72.01
2022-08-28T01:17:09.995Z,73.59
2022-08-28T01:20:16.328Z,73.52
2022-08-28T01:23:47.137Z,73.80
2022-08-28T01:26:48.852Z,74.36
2022-08-28T01:29:51.266Z,74.44
2022-08-28T01:32:55.986Z,74.82
2022-08-28T01:35:59.296Z,74.26
2022-08-28T01:39:16.459Z,75.31
2022-08-28T01:42:18.102Z,79.58
2022-08-28T01:45:21.161Z,79.88
2022-08-28T01:48:25.747Z,81.08
2022-08-28T01:51:27.798Z,79.59
2022-08-28T01:54:37.126Z,78.40
2022-08-28T01:57:49.745Z,77.03
2022-08-28T02:00:53.158Z,77.67
2022-08-28T02:03:55.338Z,77.62
2022-08-28T02:06:57.128Z,76.56
2022-08-28T02:09:59.114Z,76.63
2022-08-28T02:13:01.516Z,76.24
2022-08-28T02:16:04.882Z,74.58
2022-08-28T02:19:06.568Z,73.12
2022-08-28T02:22:09.462Z,72.86
2022-08-28T02:25:14.175Z,73.07
2022-08-28T02:28:15.876Z,72.24
2022-08-28T02:31:17.640Z,72.42
2022-08-28T02:34:19.558Z,72.75
2022-08-28T02:37:23.557Z,73.43
2022-08-28T02:40:26.078Z,73.97
2022-08-28T02:43:27.766Z,74.59
2022-08-28T02:46:30.266Z,75.80
2022-08-28T02:49:36.473Z,77.07
2022-08-28T02:52:40.384Z,77.88
2022-08-28T02:55:42.377Z,79.07
2022-08-28T02:58:44.574Z,80.60
2022-08-28T03:01:46.375Z,81.45
2022-08-28T03:04:48.510Z,82.28
2022-08-28T03:07:53.265Z,83.07
2022-08-28T03:10:55.948Z,83.69
2022-08-28T03:13:57.721Z,84.92
2022-08-28T03:17:01.561Z,85.76
2022-08-28T03:20:06.110Z,86.47
2022-08-28T03:23:26.803Z,87.07
2022-08-28T03:26:28.726Z,87.84
2022-08-28T03:29:31.691Z,88.25
2022-08-28T03:32:34.022Z,88.47
2022-08-28T03:35:37.385Z,88.72
2022-08-28T03:38:39.529Z,88.73
2022-08-28T03:41:41.428Z,88.69
2022-08-28T03:44:43.115Z,89.46
2022-08-28T03:47:45.021Z,90.63
2022-08-28T03:50:47.863Z,91.17
2022-08-28T03:53:51.178Z,92.45
2022-08-28T03:56:53.106Z,93.32
2022-08-28T03:59:54.810Z,93.22
2022-08-28T04:02:56.718Z,92.61
2022-08-28T04:05:58.773Z,91.87
2022-08-28T04:09:00.699Z,91.30
2022-08-28T04:12:02.968Z,90.79
2022-08-28T04:15:06.960Z,90.15
2022-08-28T04:18:10.357Z,89.74
2022-08-28T04:21:16.578Z,89.77
2022-08-28T04:24:18.617Z,89.67
2022-08-28T04:27:20.717Z,89.36
2022-08-28T04:30:22.344Z,89.36
2022-08-28T04:33:26.208Z,89.50
2022-08-28T04:36:28.513Z,90.02
2022-08-28T04:39:30.131Z,90.26
2022-08-28T04:42:32.085Z,91.01
2022-08-28T04:45:34.392Z,91.23
2022-08-28T04:48:36.560Z,91.93
2022-08-28T04:51:42.133Z,92.02
2022-08-28T04:54:44.122Z,92.29
2022-08-28T04:57:45.739Z,92.08
2022-08-28T05:00:49.824Z,92.04
2022-08-28T05:03:55.778Z,91.67
2022-08-28T05:06:57.893Z,90.41
2022-08-28T05:09:59.651Z,90.01
2022-08-28T05:13:01.717Z,89.21
2022-08-28T05:16:04.735Z,88.58
2022-08-28T05:19:06.527Z,87.87
2022-08-28T05:22:10.246Z,87.49
2022-08-28T05:25:12.607Z,86.53
2022-08-28T05:28:17.051Z,85.55
2022-08-28T05:31:21.929Z,84.53
2022-08-28T05:34:24.032Z,83.81
2022-08-28T05:37:25.984Z,82.38
2022-08-28T05:40:27.902Z,80.87
2022-08-28T05:43:31.477Z,80.33
2022-08-28T05:46:34.719Z,78.71
2022-08-28T05:49:36.785Z,76.54
2022-08-28T05:52:39.569Z,76.23
2022-08-28T05:55:41.467Z,75.60
2022-08-28T05:58:43.195Z,74.07
2022-08-28T06:01:47.754Z,73.43
2022-08-28T06:04:50.496Z,71.86
2022-08-28T06:07:52.761Z,70.35
2022-08-28T06:10:54.887Z,69.86
2022-08-28T06:14:02.592Z,68.70
2022-08-28T06:17:05.202Z,67.79
2022-08-28T06:20:07.860Z,65.85
2022-08-28T06:23:11.653Z,64.53
2022-08-28T06:26:13.574Z,62.95
2022-08-28T06:29:18.525Z,63.25
2022-08-28T06:32:22.870Z,60.59
2022-08-28T06:35:27.853Z,59.96
2022-08-28T06:38:29.995Z,58.58
2022-08-28T06:41:33.502Z,57.77
2022-08-28T06:44:35.234Z,56.37
2022-08-28T06:47:37.308Z,56.38
2022-08-28T06:50:45.236Z,55.20
2022-08-28T06:53:47.343Z,55.20
2022-08-28T06:56:49.359Z,54.60
2022-08-28T06:59:51.197Z,55.02
2022-08-28T07:02:52.937Z,54.22
2022-08-28T07:05:59.390Z,53.08
2022-08-28T07:09:01.525Z,53.60
2022-08-28T07:12:03.786Z,53.73
2022-08-28T07:15:09.502Z,52.14
2022-08-28T07:18:11.347Z,51.22
2022-08-28T07:21:16.411Z,49.85
2022-08-28T07:24:18.592Z,48.29
2022-08-28T07:27:22.305Z,47.71
2022-08-28T07:30:24.253Z,46.96
2022-08-28T07:33:27.936Z,44.56
2022-08-28T07:36:30.153Z,42.76
2022-08-28T07:39:32.183Z,42.30
2022-08-28T07:42:52.678Z,40.71
2022-08-28T07:46:02.506Z,38.84
2022-08-28T07:49:06.526Z,36.06
2022-08-28T07:52:09.870Z,35.20
2022-08-28T07:55:11.490Z,35.94
2022-08-28T07:58:13.811Z,33.74
2022-08-28T08:01:17.749Z,34.02
2022-08-28T08:04:22.509Z,33.58
2022-08-28T08:07:24.372Z,31.94
2022-08-28T08:10:26.214Z,31.01
2022-08-28T08:13:37.130Z,29.83
2022-08-28T08:16:42.437Z,29.63
2022-08-28T08:19:44.091Z,29.48
2022-08-28T08:22:45.693Z,27.68
2022-08-28T08:25:58.955Z,27.74
2022-08-28T08:29:01.337Z,27.72
2022-08-28T08:32:07.023Z,26.10
2022-08-28T08:35:09.169Z,24.44
2022-08-28T08:38:11.766Z,24.68
2022-08-28T08:41:34.905Z,25.51
2022-08-28T08:44:43.663Z,24.63
2022-08-28T08:47:51.397Z,25.40
2022-08-28T08:50:53.973Z,23.10
2022-08-28T08:54:10.129Z,22.87
2022-08-28T08:57:14.751Z,21.68
2022-08-28T09:00:18.850Z,22.75
2022-08-28T09:03:25.832Z,21.05
2022-08-28T09:06:50.080Z,20.17
2022-08-28T09:09:54.888Z,20.28
2022-08-28T09:13:05.549Z,19.29
2022-08-28T09:16:24.750Z,18.52
2022-08-28T09:19:27.243Z,18.65
2022-08-28T09:22:28.880Z,21.61
2022-08-28T09:26:09.257Z,20.77
2022-08-28T09:29:18.269Z,21.12
2022-08-28T09:32:31.087Z,20.04
2022-08-28T09:35:37.417Z,19.02
2022-08-28T09:38:39.495Z,18.61
2022-08-28T09:42:18.103Z,21.39
2022-08-28T09:45:23.178Z,22.56
2022-08-28T09:48:45.912Z,22.47
2022-08-28T09:51:47.897Z,21.15
2022-08-28T09:54:50.741Z,20.64
2022-08-28T09:57:54.802Z,19.29
2022-08-28T10:01:10.159Z,17.77
2022-08-28T10:04:33.794Z,16.24
2022-08-28T10:07:41.920Z,15.71
2022-08-28T10:10:53.559Z,15.67
2022-08-28T10:14:06.858Z,17.09
2022-08-28T10:17:14.302Z,17.17
2022-08-28T10:20:21.850Z,18.21
2022-08-28T10:23:27.441Z,18.56
2022-08-28T10:26:38.166Z,22.28
2022-08-28T10:30:12.492Z,22.68
2022-08-28T10:33:30.106Z,24.58
2022-08-28T10:36:35.152Z,24.20
2022-08-28T10:39:57.974Z,24.75
2022-08-28T10:43:03.272Z,26.17
2022-08-28T10:46:12.684Z,26.60
2022-08-28T10:49:26.742Z,27.66
2022-08-28T10:52:36.354Z,28.45
2022-08-28T10:55:48.963Z,27.22
2022-08-28T10:58:57.365Z,27.92
2022-08-28T11:02:00.771Z,27.27
2022-08-28T11:05:05.245Z,27.08
2022-08-28T11:08:12.677Z,27.98
2022-08-28T11:11:15.054Z,27.59
2022-08-28T11:14:48.900Z,28.23
2022-08-28T11:17:52.365Z,28.93
2022-08-28T11:21:03.259Z,27.50
2022-08-28T11:24:21.011Z,26.99
2022-08-28T11:27:31.336Z,27.43
2022-08-28T11:30:36.509Z,27.91
2022-08-28T11:33:38.160Z,26.07
2022-08-28T11:36:43.665Z,27.03
2022-08-28T11:39:45.434Z,27.94
2022-08-28T11:42:50.644Z,27.99
2022-08-28T11:45:55.267Z,28.95
2022-08-28T11:48:59.864Z,28.96
2022-08-28T11:52:10.169Z,28.03
2022-08-28T11:55:17.697Z,29.32
2022-08-28T11:58:47.921Z,28.92
2022-08-28T12:01:51.481Z,28.56
2022-08-28T12:04:53.521Z,30.01
2022-08-28T12:07:55.191Z,29.22
2022-08-28T12:10:58.960Z,29.69
2022-08-28T12:14:00.644Z,29.14
2022-08-28T12:17:02.587Z,28.59
2022-08-28T12:20:10.029Z,27.97
2022-08-28T12:23:23.886Z,28.01
2022-08-28T12:26:45.131Z,29.47
2022-08-28T12:29:50.666Z,28.16
2022-08-28T12:33:36.337Z,28.61
2022-08-28T12:36:38.194Z,28.50
2022-08-28T12:39:42.575Z,31.37
2022-08-28T12:42:55.861Z,28.91
2022-08-28T12:46:02.346Z,29.54
2022-08-28T12:49:25.247Z,29.39
2022-08-28T12:52:27.261Z,28.85
2022-08-28T12:55:29.588Z,28.17
2022-08-28T12:58:36.593Z,27.54
2022-08-28T13:01:39.178Z,27.19
2022-08-28T13:05:05.028Z,25.55
2022-08-28T13:08:12.887Z,20.60
2022-08-28T13:11:19.759Z,17.00
2022-08-28T13:14:43.318Z,17.19
2022-08-28T13:17:51.666Z,20.15
2022-08-28T13:21:10.584Z,23.83
2022-08-28T13:24:21.985Z,26.38
2022-08-28T13:27:24.872Z,27.54
2022-08-28T13:30:33.673Z,27.21
2022-08-28T13:33:35.969Z,28.83
2022-08-28T13:36:42.858Z,28.46
2022-08-28T13:39:44.813Z,25.95
2022-08-28T13:42:47.886Z,20.65
2022-08-28T13:45:51.303Z,18.28
2022-08-28T13:48:52.996Z,17.25
2022-08-28T13:51:57.398Z,16.41
2022-08-28T13:54:59.221Z,15.85
2022-08-28T13:58:01.420Z,16.35
2022-08-28T14:01:04.680Z,18.68
2022-08-28T14:04:06.360Z,22.47
2022-08-28T14:07:08.811Z,23.74
2022-08-28T14:10:10.662Z,25.79
2022-08-28T14:13:12.764Z,27.47
2022-08-28T14:16:16.912Z,27.59
2022-08-28T14:19:19.738Z,28.17
2022-08-28T14:22:21.818Z,28.38
2022-08-28T14:25:24.094Z,27.67
2022-08-28T14:28:25.792Z,27.23
2022-08-28T14:31:28.993Z,26.26
2022-08-28T14:34:31.668Z,28.45
2022-08-28T14:37:33.405Z,28.78
2022-08-28T14:40:38.468Z,29.68
2022-08-28T14:43:40.855Z,30.74
2022-08-28T14:46:44.702Z,31.33
2022-08-28T14:49:46.588Z,29.94
2022-08-28T14:52:50.661Z,30.27
2022-08-28T14:55:52.767Z,30.25
2022-08-28T14:58:55.099Z,31.40
2022-08-28T15:02:00.085Z,30.71
2022-08-28T15:05:01.985Z,31.95
2022-08-28T15:08:09.387Z,32.46
2022-08-28T15:11:18.445Z,31.98
2022-08-28T15:14:20.903Z,32.68
2022-08-28T15:17:23.628Z,31.96
2022-08-28T15:20:45.123Z,32.30
2022-08-28T15:23:50.494Z,31.89
2022-08-28T15:26:52.773Z,36.08
2022-08-28T15:29:54.507Z,38.73
2022-08-28T15:32:56.566Z,37.36
2022-08-28T15:35:58.492Z,38.47
2022-08-28T15:39:19.024Z,40.23
2022-08-28T15:42:21.003Z,40.33
2022-08-28T15:45:22.909Z,40.57
2022-08-28T15:48:24.978Z,41.58
2022-08-28T15:51:26.759Z,42.18
2022-08-28T15:54:30.064Z,42.55
2022-08-28T15:57:32.471Z,42.75
2022-08-28T16:00:34.704Z,42.80
2022-08-28T16:03:37.027Z,45.03
2022-08-28T16:06:38.616Z,45.82
2022-08-28T16:09:40.731Z,44.81
2022-08-28T16:12:42.625Z,45.53
2022-08-28T16:15:48.050Z,45.91
2022-08-28T16:18:49.856Z,46.78
2022-08-28T16:21:51.954Z,46.74
2022-08-28T16:24:54.052Z,39.84
2022-08-28T16:27:57.469Z,38.46
2022-08-28T16:31:02.849Z,39.06
2022-08-28T16:34:10.826Z,39.55
2022-08-28T16:37:19.460Z,40.25
2022-08-28T16:40:23.523Z,40.36
2022-08-28T16:43:25.603Z,40.86
2022-08-28T16:46:28.195Z,41.53
2022-08-28T16:49:30.215Z,41.56
2022-08-28T16:52:31.923Z,41.25
2022-08-28T16:55:34.857Z,42.35
2022-08-28T16:58:41.335Z,44.02
2022-08-28T17:01:43.082Z,47.73
2022-08-28T17:04:45.163Z,54.07
2022-08-28T17:07:48.222Z,56.32
2022-08-28T17:10:50.394Z,57.52
2022-08-28T17:13:52.143Z,58.43
2022-08-28T17:16:54.164Z,59.44
2022-08-28T17:19:55.850Z,59.61
2022-08-28T17:22:57.693Z,60.71
2022-08-28T17:25:59.555Z,64.19
2022-08-28T17:29:01.467Z,64.59
2022-08-28T17:32:05.341Z,65.05
2022-08-28T17:35:07.577Z,65.61
2022-08-28T17:38:09.507Z,63.87
2022-08-28T17:41:12.082Z,63.55
2022-08-28T17:44:14.416Z,63.92
2022-08-28T17:47:16.520Z,63.84
2022-08-28T17:50:18.820Z,63.42
2022-08-28T17:53:24.638Z,64.27
2022-08-28T17:56:35.959Z,64.79
2022-08-28T17:59:38.366Z,65.84
2022-08-28T18:02:40.398Z,65.06
2022-08-28T18:05:42.728Z,65.63
2022-08-28T18:08:46.599Z,67.04
2022-08-28T18:11:49.084Z,68.34
2022-08-28T18:14:51.335Z,70.83
2022-08-28T18:17:53.507Z,72.50
2022-08-28T18:20:56.047Z,74.24
2022-08-28T18:23:58.398Z,76.05
2022-08-28T18:27:00.656Z,76.79
2022-08-28T18:30:03.654Z,76.97
2022-08-28T18:33:05.812Z,78.54
2022-08-28T18:36:09.673Z,79.84
2022-08-28T18:39:13.078Z,78.64
2022-08-28T18:42:16.374Z,82.30
2022-08-28T18:45:19.115Z,83.11
2022-08-28T18:48:22.163Z,82.96
2022-08-28T18:51:24.637Z,83.47
2022-08-28T18:54:27.948Z,81.48
2022-08-28T18:57:30.450Z,82.45
2022-08-28T19:00:34.198Z,84.65
2022-08-28T19:03:37.177Z,84.53
2022-08-28T19:06:41.309Z,82.51
2022-08-28T19:09:43.590Z,81.22
2022-08-28T19:12:45.973Z,80.96
2022-08-28T19:15:53.055Z,80.84
2022-08-28T19:18:56.247Z,80.64
2022-08-28T19:22:00.926Z,79.74
2022-08-28T19:25:13.257Z,79.29
2022-08-28T19:28:30.517Z,78.53
2022-08-28T19:31:32.814Z,78.04
2022-08-28T19:34:35.521Z,77.96
2022-08-28T19:37:42.175Z,77.86
2022-08-28T19:40:45.610Z,78.13
2022-08-28T19:43:48.102Z,78.31
2022-08-28T19:46:50.378Z,77.41
2022-08-28T19:49:54.608Z,76.66
2022-08-28T19:52:59.710Z,75.29
2022-08-28T19:56:02.096Z,74.49
2022-08-28T19:59:07.244Z,73.39
2022-08-28T20:02:09.690Z,71.89
2022-08-28T20:05:12.665Z,71.33
2022-08-28T20:08:16.724Z,70.87
2022-08-28T20:11:30.235Z,70.27
2022-08-28T20:14:34.603Z,70.17
2022-08-28T20:17:43.700Z,69.34
2022-08-28T20:20:48.994Z,68.97
2022-08-28T20:23:51.104Z,68.69
2022-08-28T20:26:53.290Z,68.96
2022-08-28T20:29:55.020Z,69.00
2022-08-28T20:32:58.129Z,69.23
2022-08-28T20:36:06.229Z,69.09
2022-08-28T20:39:12.812Z,68.43
2022-08-28T20:42:14.644Z,68.75
2022-08-28T20:45:18.615Z,68.22
2022-08-28T20:48:20.272Z,68.46
2022-08-28T20:51:41.855Z,68.41
2022-08-28T20:54:44.843Z,69.30
2022-08-28T20:57:46.518Z,69.28
2022-08-28T21:00:48.397Z,69.12
2022-08-28T21:03:55.057Z,69.83
2022-08-28T21:06:57.633Z,69.42
2022-08-28T21:10:05.610Z,69.16
2022-08-28T21:13:10.196Z,69.58
2022-08-28T21:16:11.855Z,69.15
2022-08-28T21:19:16.404Z,69.95
2022-08-28T21:22:18.544Z,70.22
2022-08-28T21:25:26.464Z,69.37
2022-08-28T21:28:28.769Z,68.08
2022-08-28T21:31:30.421Z,68.28
2022-08-28T21:34:32.387Z,68.85
2022-08-28T21:37:35.141Z,69.34
2022-08-28T21:40:36.836Z,70.58
2022-08-28T21:43:46.737Z,71.53
2022-08-28T21:46:48.367Z,72.03
2022-08-28T21:49:54.911Z,71.71
2022-08-28T21:52:57.061Z,71.99
2022-08-28T21:55:58.724Z,72.16
2022-08-28T21:59:01.710Z,72.39
2022-08-28T22:02:04.250Z,72.59
2022-08-28T22:05:06.389Z,73.46
2022-08-28T22:08:08.080Z,74.70
2022-08-28T22:11:10.865Z,75.92
2022-08-28T22:14:14.016Z,75.15
2022-08-28T22:17:16.247Z,73.67
2022-08-28T22:20:18.015Z,72.10
2022-08-28T22:23:19.948Z,71.62
2022-08-28T22:26:22.205Z,71.51
2022-08-28T22:29:23.875Z,72.35
2022-08-28T22:32:26.964Z,72.82
2022-08-28T22:35:29.146Z,73.39
2022-08-28T22:38:31.030Z,74.10
2022-08-28T22:41:33.060Z,76.15
2022-08-28T22:44:35.459Z,76.22
2022-08-28T22:47:37.473Z,78.43
2022-08-28T22:50:39.109Z,80.88
2022-08-28T22:53:43.936Z,82.76
2022-08-28T22:56:45.676Z,83.83
2022-08-28T22:59:47.649Z,82.98
2022-08-28T23:02:50.421Z,81.33
2022-08-28T23:05:52.527Z,82.29
2022-08-28T23:08:54.126Z,83.04
2022-08-28T23:11:59.990Z,83.15
2022-08-28T23:15:04.628Z,82.44
2022-08-28T23:18:06.699Z,83.48
2022-08-28T23:21:09.779Z,84.77
2022-08-28T23:24:16.130Z,84.77
2022-08-28T23:30:44.094Z,84.92
2022-08-28T23:33:50.359Z,85.24
2022-08-28T23:36:53.640Z,83.91
2022-08-28T23:39:55.413Z,82.29
2022-08-28T23:42:58.178Z,81.71
2022-08-28T23:46:00.953Z,81.52
2022-08-28T23:49:03.053Z,82.76
2022-08-28T23:52:04.704Z,83.01
2022-08-28T23:55:08.047Z,82.61
2022-08-28T23:58:10.123Z,82.12
